createdAt,value
2019-03-12T00:00:28.132Z,8.50
2019-03-12T00:03:01.236Z,8.63
2019-03-12T00:05:31.596Z,9.10
2019-03-12T00:08:01.994Z,9.67
2019-03-12T00:10:32.480Z,8.93
2019-03-12T00:13:02.860Z,9.73
2019-03-12T00:15:33.196Z,9.13
2019-03-12T00:18:03.529Z,9.77
2019-03-12T00:20:33.987Z,8.47
2019-03-12T00:23:04.322Z,7.87
2019-03-12T00:25:34.683Z,9.87
2019-03-12T00:28:05.023Z,9.07
2019-03-12T00:30:35.690Z,8.90
2019-03-12T00:33:06.034Z,12.50
2019-03-12T00:35:36.390Z,9.60
2019-03-12T00:38:07.046Z,7.20
2019-03-12T00:40:37.397Z,8.13
2019-03-12T00:43:07.762Z,9.63
2019-03-12T00:45:38.117Z,9.50
2019-03-12T00:48:08.482Z,8.40
2019-03-12T00:50:38.840Z,9.37
2019-03-12T00:53:09.208Z,8.87
2019-03-12T00:55:40.450Z,9.33
2019-03-12T00:58:10.810Z,10.37
2019-03-12T01:00:41.178Z,8.23
2019-03-12T01:03:12.424Z,8.30
2019-03-12T01:05:42.770Z,8.33
2019-03-12T01:08:13.059Z,9.90
2019-03-12T01:10:43.338Z,8.60
2019-03-12T01:13:17.672Z,9.80
2019-03-12T01:15:48.054Z,8.97
2019-03-12T01:18:18.318Z,9.63
2019-03-12T01:20:48.697Z,9.33
2019-03-12T01:23:18.975Z,9.00
2019-03-12T01:25:49.267Z,9.43
2019-03-12T01:28:19.595Z,7.60
2019-03-12T01:30:49.956Z,7.63
2019-03-12T01:33:20.246Z,6.83
2019-03-12T01:35:50.601Z,7.37
2019-03-12T01:38:20.873Z,7.80
2019-03-12T01:40:52.135Z,6.40
2019-03-12T01:43:22.468Z,7.20
2019-03-12T01:45:52.860Z,6.70
2019-03-12T01:48:23.244Z,6.60
2019-03-12T01:50:53.606Z,7.03
2019-03-12T01:53:23.884Z,7.53
2019-03-12T01:55:54.202Z,7.77
2019-03-12T01:58:24.557Z,8.43
2019-03-12T02:00:54.897Z,8.10
2019-03-12T02:03:25.336Z,7.20
2019-03-12T02:05:55.680Z,8.17
2019-03-12T02:08:25.962Z,8.33
2019-03-12T02:10:56.318Z,8.27
2019-03-12T02:13:26.677Z,7.17
2019-03-12T02:15:57.037Z,8.20
2019-03-12T02:18:27.392Z,7.40
2019-03-12T02:20:57.683Z,7.33
2019-03-12T02:23:29.166Z,7.73
2019-03-12T02:25:59.662Z,7.33
2019-03-12T02:28:30.915Z,7.83
2019-03-12T02:31:01.212Z,7.87
2019-03-12T02:33:31.661Z,7.90
2019-03-12T02:36:02.986Z,7.30
2019-03-12T02:38:33.322Z,7.40
2019-03-12T02:41:03.682Z,7.33
2019-03-12T02:43:34.054Z,7.60
2019-03-12T02:46:06.332Z,7.80
2019-03-12T02:48:36.701Z,7.23
2019-03-12T02:51:07.060Z,6.93
2019-03-12T02:53:37.406Z,8.13
2019-03-12T02:56:07.698Z,8.90
2019-03-12T02:58:37.995Z,9.27
2019-03-12T03:01:08.356Z,7.83
2019-03-12T03:03:38.644Z,7.37
2019-03-12T03:06:16.733Z,8.00
2019-03-12T03:08:47.095Z,8.03
2019-03-12T03:11:17.414Z,7.60
2019-03-12T03:13:47.735Z,7.87
2019-03-12T03:16:18.091Z,8.87
2019-03-12T03:18:48.360Z,7.70
2019-03-12T03:21:18.643Z,6.67
2019-03-12T03:23:49.989Z,7.70
2019-03-12T03:26:20.285Z,7.77
2019-03-12T03:28:50.658Z,7.10
2019-03-12T03:31:21.015Z,7.97
2019-03-12T03:33:51.317Z,6.53
2019-03-12T03:36:21.665Z,8.27
2019-03-12T03:38:52.037Z,8.70
2019-03-12T03:41:22.319Z,6.60
2019-03-12T03:43:52.609Z,7.93
2019-03-12T03:46:22.960Z,6.83
2019-03-12T03:48:53.237Z,6.77
2019-03-12T03:51:23.563Z,6.93
2019-03-12T03:53:53.929Z,6.80
2019-03-12T03:56:24.227Z,6.70
2019-03-12T03:58:54.591Z,7.40
2019-03-12T04:01:24.945Z,6.77
2019-03-12T04:03:55.295Z,7.03
2019-03-12T04:06:25.574Z,6.57
2019-03-12T04:08:55.928Z,7.03
2019-03-12T04:11:26.235Z,6.80
2019-03-12T04:13:56.569Z,6.80
2019-03-12T04:16:26.859Z,8.10
2019-03-12T04:18:57.684Z,6.40
2019-03-12T04:21:28.032Z,9.00
2019-03-12T04:23:58.324Z,7.87
2019-03-12T04:26:28.687Z,7.07
2019-03-12T04:28:58.957Z,6.63
2019-03-12T04:31:29.381Z,6.83
2019-03-12T04:34:02.991Z,6.27
2019-03-12T04:36:33.412Z,6.93
2019-03-12T04:39:05.373Z,6.23
2019-03-12T04:41:37.324Z,6.80
2019-03-12T04:44:07.733Z,6.83
2019-03-12T04:46:38.106Z,6.17
2019-03-12T04:49:08.445Z,7.00
2019-03-12T04:51:38.803Z,7.00
2019-03-12T04:54:09.166Z,5.67
2019-03-12T04:56:39.527Z,6.17
2019-03-12T04:59:09.889Z,6.83
2019-03-12T05:01:40.246Z,6.17
2019-03-12T05:04:10.633Z,6.70
2019-03-12T05:06:40.923Z,6.50
2019-03-12T05:09:11.200Z,6.70
2019-03-12T05:11:41.581Z,6.60
2019-03-12T05:14:20.290Z,6.80
2019-03-12T05:16:51.694Z,7.10
2019-03-12T05:19:22.902Z,6.43
2019-03-12T05:21:53.262Z,7.13
2019-03-12T05:24:23.640Z,7.13
2019-03-12T05:26:55.001Z,7.67
2019-03-12T05:29:25.286Z,7.27
2019-03-12T05:31:55.667Z,6.50
2019-03-12T05:34:26.035Z,7.93
2019-03-12T05:36:57.344Z,8.13
2019-03-12T05:39:27.757Z,7.47
2019-03-12T05:41:58.172Z,7.23
2019-03-12T05:44:28.459Z,6.93
2019-03-12T05:46:58.757Z,7.93
2019-03-12T05:49:29.190Z,7.50
2019-03-12T05:51:59.657Z,7.37
2019-03-12T05:54:29.940Z,7.53
2019-03-12T05:57:00.293Z,7.77
2019-03-12T05:59:30.650Z,7.60
2019-03-12T06:02:02.057Z,8.27
2019-03-12T06:04:32.436Z,9.43
2019-03-12T06:07:03.813Z,18.77
2019-03-12T06:09:34.094Z,9.97
2019-03-12T06:12:04.425Z,8.63
2019-03-12T06:14:35.032Z,8.20
2019-03-12T06:17:05.608Z,8.13
2019-03-12T06:19:35.971Z,8.63
2019-03-12T06:22:06.321Z,7.37
2019-03-12T06:24:36.706Z,7.80
2019-03-12T06:27:07.124Z,7.73
2019-03-12T06:29:37.485Z,7.30
2019-03-12T06:32:12.189Z,7.73
2019-03-12T06:34:44.254Z,6.80
2019-03-12T06:37:19.163Z,6.67
2019-03-12T06:39:54.166Z,7.33
2019-03-12T06:42:26.138Z,6.87
2019-03-12T06:44:58.140Z,6.80
2019-03-12T06:47:39.323Z,8.43
2019-03-12T06:50:14.363Z,7.93
2019-03-12T06:52:49.544Z,6.83
2019-03-12T06:55:27.700Z,7.00
2019-03-12T06:58:20.432Z,6.20
2019-03-12T07:00:58.255Z,6.30
2019-03-12T07:03:36.028Z,6.73
2019-03-12T07:06:16.790Z,6.93
2019-03-12T07:08:48.830Z,8.03
2019-03-12T07:11:26.563Z,6.63
2019-03-12T07:14:01.269Z,8.20
2019-03-12T07:16:33.287Z,8.10
2019-03-12T07:19:11.744Z,7.73
2019-03-12T07:21:46.517Z,6.77
2019-03-12T07:24:24.627Z,6.63
2019-03-12T07:26:56.623Z,5.97
2019-03-12T07:29:34.573Z,7.07
2019-03-12T07:32:06.551Z,8.10
2019-03-12T07:34:38.481Z,7.17
2019-03-12T07:37:16.222Z,7.67
2019-03-12T07:39:52.238Z,6.57
2019-03-12T07:42:33.449Z,6.97
2019-03-12T07:45:08.516Z,8.13
2019-03-12T07:47:43.322Z,17.90
2019-03-12T07:50:24.322Z,7.77
2019-03-12T07:53:12.969Z,7.40
2019-03-12T07:55:50.908Z,6.97
2019-03-12T07:58:35.647Z,8.83
2019-03-12T08:01:08.817Z,9.80
2019-03-12T08:03:43.722Z,7.40
2019-03-12T08:06:15.724Z,5.47
2019-03-12T08:09:03.229Z,6.90
2019-03-12T08:11:48.890Z,6.63
2019-03-12T08:14:35.794Z,7.73
2019-03-12T08:17:07.772Z,7.33
2019-03-12T08:19:39.773Z,7.30
2019-03-12T08:22:14.733Z,7.50
2019-03-12T08:27:38.481Z,8.80
2019-03-12T08:30:15.227Z,7.70
2019-03-12T08:32:50.073Z,9.43
2019-03-12T08:35:28.425Z,8.90
2019-03-12T08:38:00.560Z,8.83
2019-03-12T08:40:35.337Z,8.93
2019-03-12T08:43:07.338Z,9.07
2019-03-12T08:45:45.473Z,8.13
2019-03-12T08:48:19.866Z,8.47
2019-03-12T08:51:07.091Z,11.17
2019-03-12T08:53:42.143Z,8.33
2019-03-12T08:56:19.929Z,10.10
2019-03-12T08:58:57.984Z,8.00
2019-03-12T09:01:38.968Z,9.50
2019-03-12T09:04:13.662Z,9.10
2019-03-12T09:06:45.667Z,8.20
2019-03-12T09:09:26.656Z,9.57
2019-03-12T09:11:58.689Z,9.03
2019-03-12T09:14:30.623Z,9.40
2019-03-12T09:17:02.617Z,9.73
2019-03-12T09:19:40.799Z,8.63
2019-03-12T09:22:12.862Z,10.30
2019-03-12T09:25:03.881Z,9.10
2019-03-12T09:27:35.879Z,11.10
2019-03-12T09:30:11.171Z,13.53
2019-03-12T09:32:55.007Z,10.03
2019-03-12T09:35:44.337Z,8.73
2019-03-12T09:38:32.627Z,11.10
2019-03-12T09:41:06.266Z,11.47
2019-03-12T09:43:48.351Z,9.43
2019-03-12T09:46:32.579Z,8.27
2019-03-12T09:49:10.708Z,8.67
2019-03-12T09:51:52.020Z,10.27
2019-03-12T09:54:24.064Z,9.47
2019-03-12T09:57:04.847Z,9.50
2019-03-12T09:59:49.096Z,10.40
2019-03-12T10:05:14.847Z,8.97
2019-03-12T10:07:56.116Z,9.50
2019-03-12T10:10:30.830Z,8.53
2019-03-12T10:13:13.433Z,9.53
2019-03-12T10:16:01.704Z,9.33
2019-03-12T10:18:34.813Z,7.67
2019-03-12T10:21:12.930Z,6.67
2019-03-12T10:23:45.009Z,7.13
2019-03-12T10:26:27.500Z,7.13
2019-03-12T10:29:12.266Z,6.90
2019-03-12T10:31:47.239Z,7.27
2019-03-12T10:34:29.548Z,7.50
2019-03-12T10:37:16.459Z,6.77
2019-03-12T10:40:07.822Z,6.30
2019-03-12T10:42:54.045Z,6.63
2019-03-12T10:45:44.183Z,7.00
2019-03-12T10:48:15.476Z,6.40
2019-03-12T10:50:45.846Z,6.03
2019-03-12T10:53:16.186Z,6.23
2019-03-12T10:55:46.573Z,5.77
2019-03-12T10:58:16.924Z,6.07
2019-03-12T11:00:47.212Z,5.63
2019-03-12T11:03:17.681Z,5.70
2019-03-12T11:05:48.118Z,5.50
2019-03-12T11:08:18.498Z,5.63
2019-03-12T11:10:48.853Z,5.40
2019-03-12T11:13:19.227Z,5.47
2019-03-12T11:15:49.767Z,5.83
2019-03-12T11:18:20.122Z,6.57
2019-03-12T11:20:50.523Z,6.70
2019-03-12T11:23:20.812Z,6.37
2019-03-12T11:25:52.244Z,6.83
2019-03-12T11:28:22.587Z,6.83
2019-03-12T11:30:52.947Z,6.70
2019-03-12T11:33:23.219Z,6.47
2019-03-12T11:35:53.758Z,6.07
2019-03-12T11:38:24.478Z,6.40
2019-03-12T11:40:55.465Z,15.13
2019-03-12T11:43:25.856Z,5.90
2019-03-12T11:45:56.207Z,5.93
2019-03-12T11:48:26.488Z,5.23
2019-03-12T11:50:56.845Z,5.27
2019-03-12T11:53:27.205Z,4.93
2019-03-12T11:55:57.578Z,4.80
2019-03-12T11:58:28.129Z,4.33
2019-03-12T12:01:03.090Z,4.13
2019-03-12T12:03:33.606Z,4.93
2019-03-12T12:06:04.301Z,4.63
2019-03-12T12:08:34.750Z,4.60
2019-03-12T12:11:12.559Z,4.30
2019-03-12T12:13:42.999Z,4.53
2019-03-12T12:16:13.289Z,4.63
2019-03-12T12:18:43.749Z,5.10
2019-03-12T12:21:15.541Z,4.57
2019-03-12T12:23:45.986Z,4.50
2019-03-12T12:26:16.360Z,4.13
2019-03-12T12:28:46.850Z,4.60
2019-03-12T12:31:17.269Z,3.97
2019-03-12T12:33:47.726Z,3.87
2019-03-12T12:36:18.013Z,3.97
2019-03-12T12:38:48.395Z,3.80
2019-03-12T12:41:19.177Z,3.97
2019-03-12T12:43:49.523Z,3.90
2019-03-12T12:46:19.809Z,3.80
2019-03-12T12:48:53.176Z,3.80
2019-03-12T12:51:22.190Z,3.93
2019-03-12T12:53:52.632Z,8.70
2019-03-12T12:56:22.924Z,9.03
2019-03-12T12:58:53.274Z,2.80
2019-03-12T13:01:23.559Z,4.50
2019-03-12T13:03:53.918Z,3.53
2019-03-12T13:06:24.363Z,4.00
2019-03-12T13:08:54.682Z,3.53
2019-03-12T13:11:25.054Z,3.40
2019-03-12T13:13:55.344Z,4.60
2019-03-12T13:16:25.963Z,5.00
2019-03-12T13:18:57.287Z,4.03
2019-03-12T13:21:27.571Z,4.63
2019-03-12T13:23:57.876Z,3.20
2019-03-12T13:26:28.247Z,2.73
2019-03-12T13:28:58.614Z,3.27
2019-03-12T13:31:29.105Z,2.80
2019-03-12T13:33:59.554Z,2.57
2019-03-12T13:36:29.919Z,2.70
2019-03-12T13:39:00.221Z,2.67
2019-03-12T13:41:32.216Z,2.40
2019-03-12T13:44:02.714Z,2.77
2019-03-12T13:46:33.046Z,2.50
2019-03-12T13:49:03.607Z,2.30
2019-03-12T13:51:33.954Z,3.10
2019-03-12T13:54:04.284Z,3.00
2019-03-12T13:56:34.639Z,2.60
2019-03-12T13:59:05.003Z,2.40
2019-03-12T14:01:35.573Z,2.27
2019-03-12T14:04:10.698Z,2.70
2019-03-12T14:06:38.016Z,2.43
2019-03-12T14:09:08.471Z,2.93
2019-03-12T14:11:41.833Z,2.90
2019-03-12T14:14:12.183Z,3.60
2019-03-12T14:16:42.543Z,3.27
2019-03-12T14:19:12.898Z,3.10
2019-03-12T14:21:43.233Z,3.10
2019-03-12T14:24:13.587Z,3.00
2019-03-12T14:26:43.962Z,3.60
2019-03-12T14:29:14.298Z,3.33
2019-03-12T14:31:44.626Z,3.47
2019-03-12T14:34:15.771Z,3.50
2019-03-12T14:36:46.208Z,4.20
2019-03-12T14:39:16.817Z,4.03
2019-03-12T14:41:47.192Z,3.90
2019-03-12T14:44:17.543Z,3.80
2019-03-12T14:46:47.955Z,4.10
2019-03-12T14:49:18.387Z,4.70
2019-03-12T14:51:58.315Z,4.00
2019-03-12T14:54:31.115Z,4.27
2019-03-12T14:57:03.947Z,4.60
2019-03-12T14:59:34.506Z,5.10
2019-03-12T15:02:05.848Z,5.50
2019-03-12T15:04:36.235Z,4.90
2019-03-12T15:07:06.602Z,4.03
2019-03-12T15:09:36.973Z,5.13
2019-03-12T15:12:07.341Z,4.40
2019-03-12T15:14:37.944Z,4.87
2019-03-12T15:17:08.300Z,4.73
2019-03-12T15:19:38.675Z,6.37
2019-03-12T15:22:09.125Z,9.40
2019-03-12T15:24:40.460Z,7.57
2019-03-12T15:27:10.825Z,6.40
2019-03-12T15:29:42.649Z,6.07
2019-03-12T15:32:13.268Z,6.00
2019-03-12T15:34:43.631Z,7.70
2019-03-12T15:37:13.972Z,6.40
2019-03-12T15:39:44.346Z,6.00
2019-03-12T15:42:15.355Z,5.67
2019-03-12T15:44:45.999Z,5.50
2019-03-12T15:47:16.364Z,5.50
2019-03-12T15:49:46.656Z,6.13
2019-03-12T15:52:17.036Z,6.10
2019-03-12T15:54:47.377Z,5.60
2019-03-12T15:57:17.732Z,5.73
2019-03-12T15:59:48.404Z,5.83
2019-03-12T16:02:18.711Z,6.40
2019-03-12T16:04:49.104Z,5.57
2019-03-12T16:07:19.475Z,4.97
2019-03-12T16:09:49.843Z,4.80
2019-03-12T16:12:20.177Z,3.87
2019-03-12T16:14:50.560Z,5.47
2019-03-12T16:17:20.842Z,6.23
2019-03-12T16:19:51.262Z,5.63
2019-03-12T16:22:21.557Z,6.63
2019-03-12T16:24:51.922Z,6.70
2019-03-12T16:27:22.544Z,8.17
2019-03-12T16:29:53.804Z,6.83
2019-03-12T16:32:26.544Z,6.07
2019-03-12T16:34:56.905Z,14.90
2019-03-12T16:37:27.339Z,67.20
2019-03-12T16:39:57.715Z,87.23
2019-03-12T16:42:34.925Z,83.53
2019-03-12T16:45:00.169Z,72.70
2019-03-12T16:47:32.134Z,71.03
2019-03-12T16:50:02.541Z,57.73
2019-03-12T16:52:32.903Z,60.47
2019-03-12T16:55:03.403Z,55.60
2019-03-12T16:57:33.794Z,45.83
2019-03-12T17:00:11.403Z,45.70
2019-03-12T17:02:42.927Z,49.67
2019-03-12T17:05:13.524Z,55.23
2019-03-12T17:07:44.796Z,38.93
2019-03-12T17:10:21.733Z,37.67
2019-03-12T17:12:52.095Z,31.83
2019-03-12T17:15:27.439Z,26.63
2019-03-12T17:17:57.824Z,23.23
2019-03-12T17:20:28.151Z,24.27
2019-03-12T17:22:58.514Z,19.47
2019-03-12T17:25:28.831Z,14.50
2019-03-12T17:27:59.219Z,14.53
2019-03-12T17:30:29.619Z,15.67
2019-03-12T17:33:00.015Z,16.07
2019-03-12T17:35:41.552Z,13.87
2019-03-12T17:38:12.895Z,14.20
2019-03-12T17:40:43.319Z,13.57
2019-03-12T17:43:13.701Z,12.57
2019-03-12T17:45:44.089Z,10.70
2019-03-12T17:48:14.435Z,13.73
2019-03-12T17:50:46.409Z,14.40
2019-03-12T17:53:16.714Z,32.87
2019-03-12T17:55:47.087Z,20.93
2019-03-12T17:58:17.672Z,22.67
2019-03-12T18:00:48.055Z,21.87
2019-03-12T18:03:20.012Z,20.17
2019-03-12T18:05:50.398Z,18.40
2019-03-12T18:08:20.847Z,30.10
2019-03-12T18:10:51.262Z,28.10
2019-03-12T18:13:21.672Z,25.03
2019-03-12T18:15:52.033Z,19.80
2019-03-12T18:18:22.395Z,21.83
2019-03-12T18:20:52.879Z,41.17
2019-03-12T18:23:24.695Z,48.10
2019-03-12T18:25:55.356Z,34.27
2019-03-12T18:28:26.047Z,33.60
2019-03-12T18:30:56.505Z,63.27
2019-03-12T18:33:27.010Z,60.33
2019-03-12T18:35:59.249Z,48.63
2019-03-12T18:38:30.532Z,56.77
2019-03-12T18:41:01.169Z,25.03
2019-03-12T18:43:32.940Z,22.33
2019-03-12T18:46:03.698Z,24.40
2019-03-12T18:48:34.288Z,22.97
2019-03-12T18:51:04.785Z,24.83
2019-03-12T18:53:35.249Z,19.57
2019-03-12T18:56:06.168Z,19.07
2019-03-12T18:58:42.004Z,19.33
2019-03-12T19:01:15.128Z,18.53
2019-03-12T19:03:45.800Z,20.47
2019-03-12T19:06:16.520Z,18.77
2019-03-12T19:08:48.609Z,18.43
2019-03-12T19:11:19.228Z,14.57
2019-03-12T19:13:49.847Z,14.10
2019-03-12T19:16:20.824Z,13.90
2019-03-12T19:18:52.510Z,14.97
2019-03-12T19:21:23.691Z,20.30
2019-03-12T19:23:55.776Z,29.60
2019-03-12T19:26:26.563Z,33.53
2019-03-12T19:28:56.958Z,22.43
2019-03-12T19:31:30.559Z,18.70
2019-03-12T19:34:03.439Z,18.37
2019-03-12T19:36:34.079Z,16.43
2019-03-12T19:39:07.025Z,12.50
2019-03-12T19:41:38.318Z,14.83
2019-03-12T19:44:11.206Z,15.07
2019-03-12T19:46:43.150Z,17.97
2019-03-12T19:49:14.254Z,15.27
2019-03-12T19:51:50.312Z,18.23
2019-03-12T19:54:25.079Z,13.80
2019-03-12T19:56:55.652Z,14.50
2019-03-12T19:59:26.079Z,14.53
2019-03-12T20:01:56.503Z,13.47
2019-03-12T20:04:27.889Z,14.40
2019-03-12T20:06:58.449Z,13.50
2019-03-12T20:09:35.078Z,12.17
2019-03-12T20:12:20.564Z,11.90
2019-03-12T20:15:16.570Z,10.47
2019-03-12T20:18:19.058Z,11.03
2019-03-12T20:21:18.223Z,11.20
2019-03-12T20:24:13.249Z,12.07
2019-03-12T20:27:03.557Z,11.57
2019-03-12T20:30:03.061Z,11.80
2019-03-12T20:33:02.986Z,10.77
2019-03-12T20:35:56.953Z,11.03
2019-03-12T20:38:48.738Z,10.03
2019-03-12T20:41:28.530Z,9.90
2019-03-12T20:44:14.468Z,9.90
2019-03-12T20:47:03.181Z,10.00
2019-03-12T20:50:10.356Z,9.93
2019-03-12T20:52:55.604Z,10.70
2019-03-12T20:55:42.032Z,16.00
2019-03-12T20:58:46.659Z,18.33
2019-03-12T21:01:53.315Z,16.67
2019-03-12T21:05:00.439Z,12.07
2019-03-12T21:08:07.079Z,16.20
2019-03-12T21:11:00.133Z,14.80
2019-03-12T21:13:48.254Z,13.70
2019-03-12T21:16:55.399Z,11.50
2019-03-12T21:19:29.025Z,9.00
2019-03-12T21:22:08.500Z,11.47
2019-03-12T21:25:18.764Z,9.97
2019-03-12T21:28:04.482Z,10.17
2019-03-12T21:30:35.165Z,10.30
2019-03-12T21:33:15.274Z,10.43
2019-03-12T21:35:41.204Z,9.73
2019-03-12T21:38:13.202Z,10.27
2019-03-12T21:40:45.087Z,11.20
2019-03-12T21:43:16.524Z,13.17
2019-03-12T21:45:47.165Z,10.43
2019-03-12T21:48:17.463Z,10.93
2019-03-12T21:50:47.914Z,10.57
2019-03-12T21:53:18.286Z,9.90
2019-03-12T21:55:48.778Z,9.83
2019-03-12T21:58:19.171Z,10.77
2019-03-12T22:00:49.550Z,10.40
2019-03-12T22:03:19.948Z,9.93
2019-03-12T22:05:50.346Z,9.87
2019-03-12T22:08:20.615Z,9.47
2019-03-12T22:10:50.994Z,8.30
2019-03-12T22:13:21.350Z,8.87
2019-03-12T22:15:52.773Z,8.70
2019-03-12T22:18:23.111Z,9.27
2019-03-12T22:20:53.467Z,9.10
2019-03-12T22:23:25.427Z,8.57
2019-03-12T22:25:56.142Z,8.93
2019-03-12T22:28:26.618Z,8.17
2019-03-12T22:30:56.982Z,8.10
2019-03-12T22:33:27.338Z,7.83
2019-03-12T22:35:57.703Z,7.53
2019-03-12T22:38:28.006Z,7.13
2019-03-12T22:40:58.444Z,7.53
2019-03-12T22:43:28.730Z,6.97
2019-03-12T22:45:59.054Z,7.53
2019-03-12T22:48:29.536Z,7.17
2019-03-12T22:51:00.792Z,6.90
2019-03-12T22:53:32.283Z,6.53
2019-03-12T22:56:02.625Z,8.13
2019-03-12T22:58:32.931Z,8.43
2019-03-12T23:01:21.199Z,8.63
2019-03-12T23:04:09.525Z,8.43
2019-03-12T23:06:57.925Z,7.30
2019-03-12T23:09:42.788Z,7.03
2019-03-12T23:12:16.964Z,7.40
2019-03-12T23:14:48.459Z,7.70
2019-03-12T23:17:20.347Z,6.73
2019-03-12T23:19:50.719Z,7.77
2019-03-12T23:22:21.099Z,6.90
2019-03-12T23:24:52.559Z,7.13
2019-03-12T23:27:22.872Z,6.73
2019-03-12T23:29:53.199Z,7.50
2019-03-12T23:32:23.517Z,7.03
2019-03-12T23:34:53.910Z,6.87
2019-03-12T23:37:25.361Z,6.97
2019-03-12T23:39:55.681Z,7.43
2019-03-12T23:42:26.349Z,7.70
2019-03-12T23:44:56.724Z,6.47
2019-03-12T23:47:27.187Z,6.43
2019-03-12T23:49:57.575Z,6.53
2019-03-12T23:52:27.957Z,6.33
2019-03-12T23:54:58.348Z,6.17
2019-03-12T23:57:28.730Z,8.10
2019-03-12T23:59:59.126Z,7.10
